createdAt,value
2023-02-01T00:00:39.404Z,98410.84
2023-02-01T00:03:25.405Z,98418.25
2023-02-01T00:05:59.459Z,98411.16
2023-02-01T00:08:27.742Z,98410.00
2023-02-01T00:11:12.195Z,98404.56
2023-02-01T00:13:42.029Z,98419.38
2023-02-01T00:16:13.494Z,98406.09
2023-02-01T00:18:41.160Z,98415.19
2023-02-01T00:21:08.408Z,98410.72
2023-02-01T00:23:36.969Z,98411.28
2023-02-01T00:26:06.118Z,98406.53
2023-02-01T00:28:34.495Z,98418.53
2023-02-01T00:31:03.885Z,98437.09
2023-02-01T00:33:32.870Z,98442.28
2023-02-01T00:36:02.039Z,98431.25
2023-02-01T00:38:30.904Z,98434.31
2023-02-01T00:41:06.738Z,98435.44
2023-02-01T00:43:35.170Z,98420.06
2023-02-01T00:46:02.874Z,98426.63
2023-02-01T00:48:30.546Z,98442.41
2023-02-01T00:51:09.420Z,98447.16
2023-02-01T00:53:37.632Z,98432.06
2023-02-01T00:56:06.307Z,98433.06
2023-02-01T00:58:34.333Z,98430.84
2023-02-01T01:01:17.030Z,98420.63
2023-02-01T01:03:48.632Z,98424.38
2023-02-01T01:06:20.569Z,98419.78
2023-02-01T01:08:48.938Z,98427.75
2023-02-01T01:11:19.628Z,98412.25
2023-02-01T01:13:49.448Z,98425.94
2023-02-01T01:16:17.075Z,98408.63
2023-02-01T01:18:45.231Z,98399.69
2023-02-01T01:21:15.148Z,98396.59
2023-02-01T01:23:43.863Z,98390.75
2023-02-01T01:26:15.088Z,98403.03
2023-02-01T01:28:42.946Z,98394.81
2023-02-01T01:31:11.938Z,98404.69
2023-02-01T01:33:39.943Z,98396.34
2023-02-01T01:36:12.628Z,98400.38
2023-02-01T01:38:41.371Z,98393.28
2023-02-01T01:41:12.896Z,98417.97
2023-02-01T01:43:58.021Z,98410.56
2023-02-01T01:46:28.408Z,98415.19
2023-02-01T01:49:14.993Z,98425.38
2023-02-01T01:52:00.798Z,98394.09
2023-02-01T01:54:38.358Z,98418.66
2023-02-01T01:57:10.304Z,98395.91
2023-02-01T01:59:41.142Z,98403.84
2023-02-01T02:02:08.587Z,98411.13
2023-02-01T02:04:37.393Z,98389.47
2023-02-01T02:07:13.145Z,98368.94
2023-02-01T02:09:45.432Z,98371.59
2023-02-01T02:12:15.565Z,98375.91
2023-02-01T02:14:43.455Z,98384.28
2023-02-01T02:17:32.535Z,98379.16
2023-02-01T02:20:33.591Z,98388.34
2023-02-01T02:23:23.715Z,98386.94
2023-02-01T02:26:15.796Z,98385.41
2023-02-01T02:29:20.953Z,98382.91
2023-02-01T02:32:10.080Z,98383.75
2023-02-01T02:34:50.600Z,98396.22
2023-02-01T02:37:43.900Z,98398.84
2023-02-01T02:40:31.008Z,98402.19
2023-02-01T02:43:23.146Z,98424.13
2023-02-01T02:46:20.670Z,98420.22
2023-02-01T02:48:54.311Z,98403.59
2023-02-01T02:51:39.716Z,98420.06
2023-02-01T02:54:30.369Z,98439.03
2023-02-01T02:57:21.844Z,98439.69
2023-02-01T03:00:08.510Z,98443.69
2023-02-01T03:02:54.846Z,98425.50
2023-02-01T03:05:22.536Z,98429.94
2023-02-01T03:07:50.906Z,98427.38
2023-02-01T03:10:34.028Z,98420.59
2023-02-01T03:13:17.879Z,98405.66
2023-02-01T03:16:16.692Z,98419.63
2023-02-01T03:18:53.797Z,98426.09
2023-02-01T03:21:32.965Z,98426.06
2023-02-01T03:24:06.096Z,98427.84
2023-02-01T03:26:39.322Z,98430.22
2023-02-01T03:29:20.518Z,98416.28
2023-02-01T03:31:48.352Z,98414.91
2023-02-01T03:34:15.946Z,98416.28
2023-02-01T03:36:58.215Z,98422.41
2023-02-01T03:39:48.496Z,98428.53
2023-02-01T03:42:22.515Z,98429.16
2023-02-01T03:44:58.439Z,98431.94
2023-02-01T03:47:31.410Z,98445.47
2023-02-01T03:50:11.845Z,98450.28
2023-02-01T03:52:48.997Z,98449.41
2023-02-01T03:55:18.611Z,98442.66
2023-02-01T03:58:04.904Z,98445.06
2023-02-01T04:00:32.220Z,98441.34
2023-02-01T04:03:00.348Z,98458.03
2023-02-01T04:05:27.741Z,98455.34
2023-02-01T04:07:59.508Z,98447.25
2023-02-01T04:10:27.295Z,98446.19
2023-02-01T04:12:54.905Z,98427.09
2023-02-01T04:15:22.115Z,98428.28
2023-02-01T04:17:49.650Z,98433.91
2023-02-01T04:20:17.151Z,98420.34
2023-02-01T04:22:44.916Z,98420.47
2023-02-01T04:25:12.255Z,98431.69
2023-02-01T04:30:10.845Z,98423.78
2023-02-01T04:32:39.230Z,98427.28
2023-02-01T04:35:07.805Z,98437.88
2023-02-01T04:37:35.635Z,98433.41
2023-02-01T04:40:04.846Z,98439.44
2023-02-01T04:42:32.412Z,98436.91
2023-02-01T04:44:59.620Z,98444.09
2023-02-01T04:47:27.459Z,98457.19
2023-02-01T04:49:54.706Z,98452.00
2023-02-01T04:52:22.289Z,98441.56
2023-02-01T04:54:49.525Z,98448.53
2023-02-01T04:57:17.043Z,98452.03
2023-02-01T04:59:44.290Z,98448.53
2023-02-01T05:02:11.848Z,98443.38
2023-02-01T05:04:39.093Z,98450.38
2023-02-01T05:07:06.713Z,98448.91
2023-02-01T05:09:33.957Z,98446.59
2023-02-01T05:12:20.014Z,98438.34
2023-02-01T05:14:48.829Z,98440.97
2023-02-01T05:17:16.433Z,98456.44
2023-02-01T05:19:43.702Z,98462.75
2023-02-01T05:22:11.488Z,98457.84
2023-02-01T05:24:38.677Z,98464.09
2023-02-01T05:27:06.220Z,98461.75
2023-02-01T05:29:33.568Z,98454.56
2023-02-01T05:32:15.251Z,98467.88
2023-02-01T05:34:48.213Z,98462.94
2023-02-01T05:37:15.797Z,98462.69
2023-02-01T05:39:43.094Z,98453.19
2023-02-01T05:42:10.671Z,98460.63
2023-02-01T05:44:37.935Z,98452.53
2023-02-01T05:47:05.620Z,98455.19
2023-02-01T05:49:32.894Z,98449.44
2023-02-01T05:52:00.809Z,98438.66
2023-02-01T05:54:28.176Z,98439.97
2023-02-01T05:56:55.663Z,98445.81
2023-02-01T05:59:23.044Z,98433.13
2023-02-01T06:01:50.617Z,98441.69
2023-02-01T06:04:17.819Z,98431.78
2023-02-01T06:06:45.337Z,98451.75
2023-02-01T06:09:12.694Z,98453.22
2023-02-01T06:11:41.426Z,98445.31
2023-02-01T06:14:09.087Z,98448.53
2023-02-01T06:16:36.697Z,98454.69
2023-02-01T06:19:03.955Z,98447.69
2023-02-01T06:21:31.549Z,98445.22
2023-02-01T06:23:59.371Z,98454.41
2023-02-01T06:26:27.283Z,98448.28
2023-02-01T06:28:54.561Z,98445.63
2023-02-01T06:31:22.418Z,98449.38
2023-02-01T06:33:49.906Z,98447.88
2023-02-01T06:36:18.383Z,98447.16
2023-02-01T06:38:45.987Z,98449.53
2023-02-01T06:41:13.608Z,98443.53
2023-02-01T06:43:40.948Z,98453.16
2023-02-01T06:46:13.431Z,98438.66
2023-02-01T06:48:41.053Z,98441.44
2023-02-01T06:51:20.829Z,98455.53
2023-02-01T06:53:48.051Z,98455.56
2023-02-01T06:56:15.713Z,98466.84
2023-02-01T06:58:43.094Z,98458.63
2023-02-01T07:01:11.682Z,98458.91
2023-02-01T07:03:39.088Z,98462.53
2023-02-01T07:06:07.949Z,98448.00
2023-02-01T07:08:37.624Z,98443.09
2023-02-01T07:11:11.159Z,98443.81
2023-02-01T07:13:39.432Z,98444.66
2023-02-01T07:16:11.357Z,98436.13
2023-02-01T07:18:38.667Z,98437.66
2023-02-01T07:21:06.438Z,98446.88
2023-02-01T07:23:33.792Z,98449.13
2023-02-01T07:26:04.341Z,98457.38
2023-02-01T07:28:33.787Z,98460.84
2023-02-01T07:31:10.111Z,98467.56
2023-02-01T07:33:37.688Z,98465.59
2023-02-01T07:36:07.831Z,98471.72
2023-02-01T07:38:35.453Z,98466.44
2023-02-01T07:41:05.500Z,98476.13
2023-02-01T07:43:34.310Z,98461.19
2023-02-01T07:46:02.657Z,98463.78
2023-02-01T07:48:31.384Z,98464.13
2023-02-01T07:51:06.931Z,98463.19
2023-02-01T07:53:35.656Z,98471.69
2023-02-01T07:56:04.002Z,98461.25
2023-02-01T07:58:31.589Z,98463.22
2023-02-01T08:01:17.278Z,98461.28
2023-02-01T08:03:44.856Z,98461.41
2023-02-01T08:06:12.081Z,98440.72
2023-02-01T08:08:39.605Z,98453.06
2023-02-01T08:11:07.875Z,98457.44
2023-02-01T08:13:36.556Z,98456.47
2023-02-01T08:16:07.054Z,98448.09
2023-02-01T08:18:36.340Z,98456.47
2023-02-01T08:21:09.447Z,98461.59
2023-02-01T08:23:38.454Z,98453.72
2023-02-01T08:26:15.833Z,98429.38
2023-02-01T08:28:46.399Z,98431.56
2023-02-01T08:31:17.377Z,98437.03
2023-02-01T08:33:49.131Z,98412.69
2023-02-01T08:36:16.517Z,98429.81
2023-02-01T08:38:44.124Z,98434.56
2023-02-01T08:41:17.502Z,98435.56
2023-02-01T08:43:45.829Z,98441.56
2023-02-01T08:46:13.488Z,98444.84
2023-02-01T08:48:41.770Z,98423.13
2023-02-01T08:51:12.107Z,98448.56
2023-02-01T08:53:43.640Z,98436.13
2023-02-01T08:56:16.547Z,98449.47
2023-02-01T08:58:44.564Z,98438.19
2023-02-01T09:01:15.270Z,98447.31
2023-02-01T09:03:43.045Z,98442.78
2023-02-01T09:06:13.785Z,98443.16
2023-02-01T09:08:42.338Z,98449.53
2023-02-01T09:11:13.756Z,98455.84
2023-02-01T09:13:41.314Z,98446.22
2023-02-01T09:16:08.739Z,98432.88
2023-02-01T09:18:36.532Z,98435.44
2023-02-01T09:21:08.332Z,98455.25
2023-02-01T09:23:36.241Z,98447.25
2023-02-01T09:26:05.383Z,98462.34
2023-02-01T09:28:33.005Z,98452.94
2023-02-01T09:31:02.211Z,98461.31
2023-02-01T09:33:30.078Z,98462.53
2023-02-01T09:36:03.056Z,98457.81
2023-02-01T09:38:32.952Z,98456.13
2023-02-01T09:41:01.701Z,98466.44
2023-02-01T09:43:54.660Z,98475.38
2023-02-01T09:46:33.649Z,98469.78
2023-02-01T09:49:12.143Z,98472.91
2023-02-01T09:51:45.021Z,98476.13
2023-02-01T09:54:16.570Z,98479.00
2023-02-01T09:56:59.858Z,98484.13
2023-02-01T09:59:41.706Z,98492.31
2023-02-01T10:02:17.440Z,98490.91
2023-02-01T10:04:45.719Z,98487.50
2023-02-01T10:07:35.490Z,98486.84
2023-02-01T10:10:29.354Z,98479.59
2023-02-01T10:13:29.730Z,98501.50
2023-02-01T10:16:18.673Z,98465.16
2023-02-01T10:18:54.655Z,98483.00
2023-02-01T10:21:55.670Z,98497.19
2023-02-01T10:24:31.645Z,98496.16
2023-02-01T10:27:08.639Z,98483.22
2023-02-01T10:29:39.767Z,98486.38
2023-02-01T10:32:17.103Z,98511.59
2023-02-01T10:34:50.999Z,98487.69
2023-02-01T10:37:29.747Z,98496.88
2023-02-01T10:39:58.767Z,98498.50
2023-02-01T10:42:30.623Z,98512.91
2023-02-01T10:45:03.035Z,98511.63
2023-02-01T10:47:30.814Z,98518.78
2023-02-01T10:49:57.945Z,98526.72
2023-02-01T10:52:37.199Z,98527.53
2023-02-01T10:55:29.065Z,98531.97
2023-02-01T10:57:57.794Z,98529.81
2023-02-01T11:00:25.911Z,98525.31
2023-02-01T11:02:54.379Z,98513.13
2023-02-01T11:05:23.382Z,98531.53
2023-02-01T11:07:55.807Z,98518.97
2023-02-01T11:10:41.686Z,98514.06
2023-02-01T11:13:17.641Z,98512.19
2023-02-01T11:15:47.149Z,98511.53
2023-02-01T11:18:26.087Z,98509.53
2023-02-01T11:20:56.034Z,98525.22
2023-02-01T11:23:26.610Z,98520.69
2023-02-01T11:25:57.106Z,98532.84
2023-02-01T11:28:36.369Z,98520.88
2023-02-01T11:31:08.654Z,98531.03
2023-02-01T11:33:39.430Z,98531.94
2023-02-01T11:36:15.530Z,98522.22
2023-02-01T11:38:53.837Z,98508.38
2023-02-01T11:41:28.932Z,98519.69
2023-02-01T11:44:01.724Z,98518.56
2023-02-01T11:46:36.514Z,98513.16
2023-02-01T11:49:27.261Z,98521.22
2023-02-01T11:52:16.046Z,98512.53
2023-02-01T11:54:59.042Z,98511.69
2023-02-01T11:58:03.304Z,98512.63
2023-02-01T12:00:41.259Z,98492.03
2023-02-01T12:03:20.723Z,98505.16
2023-02-01T12:06:03.656Z,98505.22
2023-02-01T12:08:34.003Z,98510.31
2023-02-01T12:11:39.938Z,98507.81
2023-02-01T12:14:40.713Z,98496.91
2023-02-01T12:17:36.080Z,98513.13
2023-02-01T12:20:25.429Z,98509.53
2023-02-01T12:23:20.519Z,98512.31
2023-02-01T12:25:58.274Z,98511.44
2023-02-01T12:28:44.924Z,98512.03
2023-02-01T12:31:48.247Z,98506.31
2023-02-01T12:34:54.078Z,98517.53
2023-02-01T12:37:30.413Z,98514.31
2023-02-01T12:40:26.243Z,98523.72
2023-02-01T12:43:11.520Z,98532.25
2023-02-01T12:45:53.670Z,98527.78
2023-02-01T12:48:50.204Z,98525.38
2023-02-01T12:51:21.434Z,98529.03
2023-02-01T12:53:56.497Z,98518.63
2023-02-01T12:56:58.703Z,98506.19
2023-02-01T12:59:45.458Z,98497.13
2023-02-01T13:02:13.703Z,98500.19
2023-02-01T13:05:04.308Z,98482.34
2023-02-01T13:07:40.728Z,98500.38
2023-02-01T13:10:17.556Z,98509.19
2023-02-01T13:13:12.062Z,98511.81
2023-02-01T13:15:45.046Z,98496.63
2023-02-01T13:18:22.695Z,98495.78
2023-02-01T13:21:04.935Z,98499.09
2023-02-01T13:23:41.555Z,98500.53
2023-02-01T13:26:09.141Z,98506.41
2023-02-01T13:28:50.333Z,98496.47
2023-02-01T13:31:42.792Z,98511.44
2023-02-01T13:34:19.024Z,98518.97
2023-02-01T13:37:10.559Z,98500.66
2023-02-01T13:39:56.886Z,98511.00
2023-02-01T13:42:28.585Z,98502.78
2023-02-01T13:45:05.394Z,98516.47
2023-02-01T13:47:41.230Z,98524.28
2023-02-01T13:50:21.918Z,98526.81
2023-02-01T13:52:59.479Z,98529.59
2023-02-01T13:55:29.404Z,98536.59
2023-02-01T13:58:19.814Z,98537.56
2023-02-01T14:00:48.947Z,98546.09
2023-02-01T14:03:19.885Z,98534.47
2023-02-01T14:05:48.088Z,98536.59
2023-02-01T14:08:24.276Z,98525.41
2023-02-01T14:11:01.448Z,98509.31
2023-02-01T14:13:33.621Z,98510.72
2023-02-01T14:16:04.337Z,98527.38
2023-02-01T14:18:34.526Z,98539.09
2023-02-01T14:21:34.268Z,98555.06
2023-02-01T14:24:08.698Z,98553.50
2023-02-01T14:26:36.216Z,98548.53
2023-02-01T14:29:23.514Z,98552.78
2023-02-01T14:32:07.241Z,98559.59
2023-02-01T14:34:58.321Z,98567.72
2023-02-01T14:37:30.163Z,98555.78
2023-02-01T14:40:06.960Z,98567.91
2023-02-01T14:42:40.474Z,98559.16
2023-02-01T14:45:20.237Z,98576.13
2023-02-01T14:47:49.867Z,98582.59
2023-02-01T14:50:38.525Z,98580.75
2023-02-01T14:53:15.050Z,98584.13
2023-02-01T14:56:02.715Z,98578.94
2023-02-01T14:59:07.260Z,98583.81
2023-02-01T15:01:38.815Z,98581.59
2023-02-01T15:04:19.529Z,98579.94
2023-02-01T15:06:58.329Z,98581.72
2023-02-01T15:09:37.416Z,98593.19
2023-02-01T15:12:12.018Z,98604.34
2023-02-01T15:14:49.923Z,98594.41
2023-02-01T15:17:21.602Z,98607.81
2023-02-01T15:20:13.525Z,98612.97
2023-02-01T15:22:41.039Z,98598.75
2023-02-01T15:25:23.645Z,98607.16
2023-02-01T15:27:51.198Z,98618.59
2023-02-01T15:30:25.053Z,98616.78
2023-02-01T15:32:52.995Z,98617.06
2023-02-01T15:35:44.747Z,98622.75
2023-02-01T15:38:30.252Z,98621.47
2023-02-01T15:41:08.621Z,98619.41
2023-02-01T15:43:47.120Z,98631.63
2023-02-01T15:46:33.253Z,98639.72
2023-02-01T15:49:01.093Z,98629.47
2023-02-01T15:51:31.686Z,98621.38
2023-02-01T15:54:02.312Z,98628.78
2023-02-01T15:56:36.184Z,98625.88
2023-02-01T15:59:13.811Z,98620.06
2023-02-01T16:01:43.219Z,98628.34
2023-02-01T16:04:16.813Z,98626.09
2023-02-01T16:06:55.221Z,98618.81
2023-02-01T16:09:26.184Z,98626.63
2023-02-01T16:11:58.101Z,98617.78
2023-02-01T16:14:26.753Z,98616.41
2023-02-01T16:16:56.570Z,98609.25
2023-02-01T16:19:28.852Z,98620.19
2023-02-01T16:21:57.157Z,98618.88
2023-02-01T16:24:26.964Z,98613.47
2023-02-01T16:26:54.969Z,98619.13
2023-02-01T16:29:22.737Z,98633.59
2023-02-01T16:31:51.377Z,98614.09
2023-02-01T16:34:19.146Z,98625.34
2023-02-01T16:36:56.617Z,98627.63
2023-02-01T16:39:25.087Z,98626.25
2023-02-01T16:41:52.734Z,98632.25
2023-02-01T16:44:20.488Z,98629.16
2023-02-01T16:46:49.616Z,98636.84
2023-02-01T16:49:23.295Z,98632.34
2023-02-01T16:51:53.931Z,98630.13
2023-02-01T16:54:21.821Z,98633.53
2023-02-01T16:56:50.080Z,98635.44
2023-02-01T16:59:17.443Z,98632.91
2023-02-01T17:01:45.043Z,98632.88
2023-02-01T17:04:12.660Z,98628.72
2023-02-01T17:06:40.940Z,98623.03
2023-02-01T17:09:08.327Z,98621.50
2023-02-01T17:11:35.971Z,98616.47
2023-02-01T17:14:16.468Z,98626.31
2023-02-01T17:16:46.734Z,98622.34
2023-02-01T17:19:24.103Z,98626.13
2023-02-01T17:21:56.709Z,98621.13
2023-02-01T17:24:30.764Z,98625.75
2023-02-01T17:27:04.634Z,98618.16
2023-02-01T17:29:31.964Z,98620.25
2023-02-01T17:32:00.735Z,98615.78
2023-02-01T17:34:28.414Z,98628.78
2023-02-01T17:36:56.075Z,98621.25
2023-02-01T17:39:41.713Z,98620.38
2023-02-01T17:42:12.277Z,98619.69
2023-02-01T17:44:39.583Z,98624.72
2023-02-01T17:47:07.193Z,98620.44
2023-02-01T17:49:35.934Z,98620.22
2023-02-01T17:52:03.359Z,98625.09
2023-02-01T17:54:30.985Z,98608.22
2023-02-01T17:57:03.538Z,98621.44
2023-02-01T17:59:31.288Z,98622.28
2023-02-01T18:02:01.047Z,98628.19
2023-02-01T18:04:28.834Z,98621.44
2023-02-01T18:06:57.608Z,98611.97
2023-02-01T18:09:25.127Z,98617.34
2023-02-01T18:11:55.297Z,98624.06
2023-02-01T18:14:22.806Z,98625.91
2023-02-01T18:16:50.105Z,98623.09
2023-02-01T18:19:17.646Z,98612.19
2023-02-01T18:21:45.154Z,98628.56
2023-02-01T18:24:17.418Z,98631.78
2023-02-01T18:26:44.809Z,98625.47
2023-02-01T18:29:12.477Z,98627.59
2023-02-01T18:31:46.330Z,98622.13
2023-02-01T18:34:21.372Z,98626.34
2023-02-01T18:36:49.811Z,98619.50
2023-02-01T18:39:18.308Z,98617.53
2023-02-01T18:41:48.221Z,98624.81
2023-02-01T18:44:16.895Z,98621.00
2023-02-01T18:46:44.475Z,98611.38
2023-02-01T18:49:14.064Z,98611.13
2023-02-01T18:51:43.297Z,98607.75
2023-02-01T18:54:12.275Z,98597.13
2023-02-01T18:56:40.155Z,98596.97
2023-02-01T18:59:08.721Z,98606.75
2023-02-01T19:01:36.059Z,98593.88
2023-02-01T19:04:13.811Z,98601.59
2023-02-01T19:06:45.761Z,98614.84
2023-02-01T19:09:13.293Z,98599.22
2023-02-01T19:11:40.524Z,98604.41
2023-02-01T19:14:08.077Z,98591.09
2023-02-01T19:16:39.806Z,98609.81
2023-02-01T19:19:07.522Z,98608.84
2023-02-01T19:21:34.761Z,98593.63
2023-02-01T19:24:02.298Z,98591.78
2023-02-01T19:26:29.582Z,98593.47
2023-02-01T19:28:58.699Z,98592.22
2023-02-01T19:31:26.230Z,98582.31
2023-02-01T19:33:55.098Z,98593.75
2023-02-01T19:36:22.538Z,98590.38
2023-02-01T19:38:50.077Z,98595.97
2023-02-01T19:41:17.343Z,98596.97
2023-02-01T19:43:45.209Z,98589.97
2023-02-01T19:46:13.219Z,98587.34
2023-02-01T19:48:40.750Z,98592.78
2023-02-01T19:51:09.357Z,98595.88
2023-02-01T19:53:36.971Z,98592.06
2023-02-01T19:56:04.498Z,98601.41
2023-02-01T19:58:32.126Z,98607.06
2023-02-01T20:01:01.486Z,98612.94
2023-02-01T20:03:29.082Z,98608.13
2023-02-01T20:05:58.335Z,98604.47
2023-02-01T20:08:26.137Z,98604.06
2023-02-01T20:10:53.607Z,98607.69
2023-02-01T20:13:21.238Z,98600.16
2023-02-01T20:15:48.529Z,98589.28
2023-02-01T20:18:16.094Z,98591.75
2023-02-01T20:20:43.301Z,98583.03
2023-02-01T20:23:11.012Z,98584.88
2023-02-01T20:25:39.142Z,98582.34
2023-02-01T20:28:06.709Z,98584.09
2023-02-01T20:30:34.395Z,98586.78
2023-02-01T20:33:02.470Z,98593.22
2023-02-01T20:35:29.733Z,98589.56
2023-02-01T20:37:59.130Z,98601.81
2023-02-01T20:40:26.516Z,98590.25
2023-02-01T20:42:54.651Z,98595.56
2023-02-01T20:45:22.253Z,98595.19
2023-02-01T20:47:54.215Z,98605.09
2023-02-01T20:50:21.958Z,98601.59
2023-02-01T20:52:49.553Z,98610.41
2023-02-01T20:55:16.786Z,98597.69
2023-02-01T20:57:44.351Z,98603.84
2023-02-01T21:00:12.727Z,98600.16
2023-02-01T21:02:40.405Z,98612.50
2023-02-01T21:05:08.430Z,98612.03
2023-02-01T21:07:37.862Z,98611.81
2023-02-01T21:10:06.398Z,98611.25
2023-02-01T21:12:34.339Z,98606.81
2023-02-01T21:15:01.878Z,98618.97
2023-02-01T21:17:33.141Z,98618.94
2023-02-01T21:20:00.419Z,98620.34
2023-02-01T21:22:27.972Z,98618.53
2023-02-01T21:24:55.176Z,98619.09
2023-02-01T21:27:22.755Z,98618.84
2023-02-01T21:29:49.986Z,98620.78
2023-02-01T21:32:17.504Z,98621.00
2023-02-01T21:34:44.819Z,98615.16
2023-02-01T21:37:12.384Z,98619.50
2023-02-01T21:39:39.695Z,98621.88
2023-02-01T21:42:18.282Z,98621.75
2023-02-01T21:44:49.425Z,98613.78
2023-02-01T21:47:21.318Z,98616.53
2023-02-01T21:49:53.965Z,98619.91
2023-02-01T21:52:22.109Z,98622.41
2023-02-01T21:54:51.080Z,98627.84
2023-02-01T21:57:18.618Z,98620.16
2023-02-01T21:59:45.811Z,98618.66
2023-02-01T22:02:16.380Z,98623.97
2023-02-01T22:04:44.736Z,98615.00
2023-02-01T22:07:12.660Z,98624.25
2023-02-01T22:09:40.261Z,98625.88
2023-02-01T22:12:09.927Z,98624.31
2023-02-01T22:14:37.375Z,98633.00
2023-02-01T22:17:05.133Z,98630.69
2023-02-01T22:19:32.457Z,98637.44
2023-02-01T22:22:00.225Z,98627.69
2023-02-01T22:24:27.445Z,98639.72
2023-02-01T22:26:55.123Z,98635.41
2023-02-01T22:29:23.897Z,98628.84
2023-02-01T22:31:51.963Z,98633.44
2023-02-01T22:34:19.359Z,98625.03
2023-02-01T22:36:48.885Z,98636.66
2023-02-01T22:39:16.110Z,98626.47
2023-02-01T22:41:43.647Z,98623.25
2023-02-01T22:44:10.897Z,98632.47
2023-02-01T22:46:38.485Z,98635.97
2023-02-01T22:49:05.778Z,98630.63
2023-02-01T22:51:33.818Z,98626.44
2023-02-01T22:54:01.456Z,98626.59
2023-02-01T22:56:31.938Z,98632.75
2023-02-01T22:59:01.661Z,98621.69
2023-02-01T23:01:30.480Z,98637.13
2023-02-01T23:04:02.499Z,98637.31
2023-02-01T23:06:30.923Z,98638.06
2023-02-01T23:09:01.125Z,98642.44
2023-02-01T23:11:29.226Z,98639.84
2023-02-01T23:13:57.216Z,98632.53
2023-02-01T23:16:25.202Z,98620.78
2023-02-01T23:18:52.541Z,98626.50
2023-02-01T23:21:21.882Z,98634.28
2023-02-01T23:23:51.531Z,98625.56
2023-02-01T23:26:20.044Z,98607.00
2023-02-01T23:28:49.836Z,98613.97
2023-02-01T23:31:17.474Z,98595.81
2023-02-01T23:33:45.914Z,98601.69
2023-02-01T23:36:18.378Z,98606.97
2023-02-01T23:38:46.858Z,98593.19
2023-02-01T23:41:16.691Z,98599.78
2023-02-01T23:43:59.594Z,98602.03
2023-02-01T23:46:34.177Z,98603.53
2023-02-01T23:49:02.869Z,98590.53
2023-02-01T23:51:31.330Z,98598.69
2023-02-01T23:53:59.548Z,98595.06
2023-02-01T23:56:33.425Z,98600.25
2023-02-01T23:59:02.561Z,98595.31
